createdAt,value
2023-07-25T00:02:06.248Z,14.10
2023-07-25T00:04:51.732Z,14.10
2023-07-25T00:07:37.149Z,14.20
2023-07-25T00:10:22.687Z,14.20
2023-07-25T00:13:15.002Z,14.20
2023-07-25T00:16:00.504Z,14.20
2023-07-25T00:18:45.679Z,14.20
2023-07-25T00:21:31.617Z,14.20
2023-07-25T00:24:17.263Z,14.20
2023-07-25T00:27:02.884Z,14.30
2023-07-25T00:29:52.158Z,14.30
2023-07-25T00:32:38.426Z,14.30
2023-07-25T00:35:23.965Z,14.30
2023-07-25T00:38:09.491Z,14.30
2023-07-25T00:40:54.885Z,14.30
2023-07-25T00:43:40.500Z,14.30
2023-07-25T00:46:26.176Z,14.20
2023-07-25T00:49:12.362Z,14.20
2023-07-25T00:51:58.269Z,14.20
2023-07-25T00:54:50.964Z,14.20
2023-07-25T00:57:36.432Z,14.20
2023-07-25T01:00:22.162Z,14.30
2023-07-25T01:03:07.986Z,14.30
2023-07-25T01:05:53.896Z,14.30
2023-07-25T01:08:53.638Z,14.40
2023-07-25T01:11:40.348Z,14.40
2023-07-25T01:14:25.888Z,14.40
2023-07-25T01:17:18.656Z,14.40
2023-07-25T01:20:06.120Z,14.40
2023-07-25T01:22:52.435Z,14.30
2023-07-25T01:25:38.113Z,14.40
2023-07-25T01:28:24.894Z,14.30
2023-07-25T01:31:10.414Z,14.30
2023-07-25T01:33:55.953Z,14.30
2023-07-25T01:36:41.214Z,14.30
2023-07-25T01:39:26.722Z,14.30
2023-07-25T01:42:15.379Z,14.30
2023-07-25T01:45:02.250Z,14.30
2023-07-25T01:47:48.661Z,14.30
2023-07-25T01:50:34.216Z,14.30
2023-07-25T01:53:19.702Z,14.40
2023-07-25T01:56:05.363Z,14.40
2023-07-25T01:58:50.905Z,14.40
2023-07-25T02:01:36.586Z,14.40
2023-07-25T02:04:22.181Z,14.40
2023-07-25T02:07:07.612Z,14.40
2023-07-25T02:09:53.265Z,14.40
2023-07-25T02:12:39.881Z,14.40
2023-07-25T02:15:25.445Z,14.40
2023-07-25T02:18:10.979Z,14.40
2023-07-25T02:20:56.349Z,14.30
2023-07-25T02:23:41.994Z,14.30
2023-07-25T02:26:27.506Z,14.30
2023-07-25T02:29:13.062Z,14.20
2023-07-25T02:31:58.682Z,14.20
2023-07-25T02:34:44.092Z,14.20
2023-07-25T02:37:29.689Z,14.20
2023-07-25T02:40:15.154Z,14.20
2023-07-25T02:43:02.502Z,14.20
2023-07-25T02:45:47.722Z,14.20
2023-07-25T02:48:33.186Z,14.20
2023-07-25T02:51:20.700Z,14.20
2023-07-25T02:54:06.276Z,14.10
2023-07-25T02:56:51.657Z,14.20
2023-07-25T02:59:37.301Z,14.10
2023-07-25T03:02:22.764Z,14.20
2023-07-25T03:05:09.096Z,14.20
2023-07-25T03:07:54.542Z,14.10
2023-07-25T03:10:40.049Z,14.10
2023-07-25T03:13:25.451Z,14.20
2023-07-25T03:16:10.762Z,14.10
2023-07-25T03:18:56.462Z,14.10
2023-07-25T03:21:42.183Z,14.10
2023-07-25T03:24:27.388Z,14.10
2023-07-25T03:27:13.167Z,14.10
2023-07-25T03:29:58.430Z,14.10
2023-07-25T03:32:44.029Z,14.10
2023-07-25T03:35:29.519Z,14.10
2023-07-25T03:38:15.042Z,14.20
2023-07-25T03:41:00.530Z,14.20
2023-07-25T03:43:46.134Z,14.20
2023-07-25T03:46:32.069Z,14.20
2023-07-25T03:49:17.483Z,14.20
2023-07-25T03:52:02.962Z,14.10
2023-07-25T03:54:48.546Z,14.10
2023-07-25T03:57:34.019Z,14.20
2023-07-25T04:00:19.448Z,14.10
2023-07-25T04:03:15.052Z,14.10
2023-07-25T04:06:01.639Z,14.00
2023-07-25T04:08:47.321Z,14.00
2023-07-25T04:11:33.107Z,14.00
2023-07-25T04:14:18.939Z,14.00
2023-07-25T04:17:04.493Z,13.90
2023-07-25T04:19:50.344Z,13.90
2023-07-25T04:22:36.004Z,13.80
2023-07-25T04:25:21.508Z,13.90
2023-07-25T04:28:07.744Z,13.90
2023-07-25T04:30:53.008Z,13.90
2023-07-25T04:33:38.508Z,13.90
2023-07-25T04:36:24.159Z,13.90
2023-07-25T04:39:09.762Z,13.90
2023-07-25T04:41:55.498Z,13.90
2023-07-25T04:44:40.984Z,14.00
2023-07-25T04:47:26.501Z,14.00
2023-07-25T04:50:12.012Z,13.90
2023-07-25T04:52:58.264Z,13.90
2023-07-25T04:55:43.936Z,13.90
2023-07-25T04:58:29.487Z,13.90
2023-07-25T05:01:14.981Z,13.90
2023-07-25T05:04:00.521Z,13.90
2023-07-25T05:06:45.833Z,13.90
2023-07-25T05:09:31.446Z,13.90
2023-07-25T05:12:16.988Z,13.70
2023-07-25T05:15:02.489Z,13.70
2023-07-25T05:17:48.115Z,13.70
2023-07-25T05:20:33.753Z,13.90
2023-07-25T05:23:19.435Z,13.70
2023-07-25T05:26:04.979Z,13.80
2023-07-25T05:28:50.846Z,13.70
2023-07-25T05:31:35.960Z,13.70
2023-07-25T05:34:21.475Z,13.90
2023-07-25T05:37:07.343Z,13.90
2023-07-25T05:39:52.561Z,13.90
2023-07-25T05:42:38.302Z,13.90
2023-07-25T05:45:23.466Z,13.90
2023-07-25T05:48:08.930Z,13.90
2023-07-25T05:50:54.421Z,14.00
2023-07-25T05:53:39.838Z,14.00
2023-07-25T05:56:25.496Z,14.00
2023-07-25T05:59:10.976Z,14.20
2023-07-25T06:01:56.649Z,14.20
2023-07-25T06:04:44.115Z,14.00
2023-07-25T06:07:29.458Z,14.10
2023-07-25T06:10:14.989Z,14.00
2023-07-25T06:13:00.525Z,14.10
2023-07-25T06:15:46.418Z,14.10
2023-07-25T06:18:31.828Z,14.20
2023-07-25T06:21:17.200Z,14.10
2023-07-25T06:24:02.711Z,14.10
2023-07-25T06:26:48.058Z,14.20
2023-07-25T06:29:33.776Z,14.30
2023-07-25T06:32:19.216Z,14.60
2023-07-25T06:35:06.254Z,14.70
2023-07-25T06:37:51.901Z,14.70
2023-07-25T06:40:37.651Z,14.80
2023-07-25T06:43:23.131Z,15.00
2023-07-25T06:46:09.747Z,15.00
2023-07-25T06:48:55.281Z,15.30
2023-07-25T06:51:40.814Z,15.50
2023-07-25T06:54:26.274Z,15.50
2023-07-25T06:57:11.938Z,15.40
2023-07-25T06:59:57.686Z,15.50
2023-07-25T07:02:43.941Z,15.40
2023-07-25T07:05:30.698Z,15.30
2023-07-25T07:08:16.697Z,15.30
2023-07-25T07:11:02.276Z,15.40
2023-07-25T07:13:48.004Z,15.70
2023-07-25T07:16:33.753Z,15.80
2023-07-25T07:19:19.197Z,15.80
2023-07-25T07:22:04.863Z,15.70
2023-07-25T07:24:50.393Z,15.60
2023-07-25T07:27:35.988Z,15.60
2023-07-25T07:30:21.516Z,15.80
2023-07-25T07:33:07.212Z,15.80
2023-07-25T07:35:52.909Z,15.80
2023-07-25T07:38:38.430Z,16.00
2023-07-25T07:41:23.914Z,15.90
2023-07-25T07:44:09.637Z,15.90
2023-07-25T07:46:55.983Z,16.00
2023-07-25T07:49:41.619Z,16.00
2023-07-25T07:52:40.636Z,16.20
2023-07-25T07:55:28.334Z,16.20
2023-07-25T07:58:13.911Z,16.40
2023-07-25T08:00:59.678Z,16.60
2023-07-25T08:03:46.561Z,16.50
2023-07-25T08:06:32.231Z,16.60
2023-07-25T08:09:17.770Z,16.10
2023-07-25T08:12:04.646Z,15.60
2023-07-25T08:14:50.098Z,15.80
2023-07-25T08:17:35.731Z,15.90
2023-07-25T08:20:21.142Z,16.00
2023-07-25T08:23:06.972Z,16.10
2023-07-25T08:25:54.911Z,16.20
2023-07-25T08:28:40.518Z,16.40
2023-07-25T08:31:25.999Z,16.40
2023-07-25T08:34:11.578Z,16.70
2023-07-25T08:36:56.805Z,16.70
2023-07-25T08:39:42.606Z,16.90
2023-07-25T08:42:33.735Z,16.70
2023-07-25T08:45:20.961Z,16.80
2023-07-25T08:48:12.034Z,17.00
2023-07-25T08:50:59.027Z,17.00
2023-07-25T08:54:03.836Z,17.20
2023-07-25T08:56:49.638Z,17.20
2023-07-25T08:59:35.397Z,17.00
2023-07-25T09:02:22.225Z,17.00
2023-07-25T09:05:07.931Z,17.20
2023-07-25T09:07:54.328Z,17.40
2023-07-25T09:10:40.166Z,17.60
2023-07-25T09:13:25.637Z,18.00
2023-07-25T09:16:10.976Z,17.80
2023-07-25T09:18:56.364Z,17.90
2023-07-25T09:21:51.110Z,17.80
2023-07-25T09:24:40.428Z,17.80
2023-07-25T09:27:27.324Z,18.00
2023-07-25T09:30:14.413Z,17.70
2023-07-25T09:32:59.837Z,17.50
2023-07-25T09:35:48.430Z,17.30
2023-07-25T09:38:37.234Z,17.40
2023-07-25T09:41:24.518Z,17.50
2023-07-25T09:44:10.472Z,17.50
2023-07-25T09:46:58.263Z,17.70
2023-07-25T09:49:50.629Z,17.60
2023-07-25T09:52:43.720Z,17.90
2023-07-25T09:55:28.979Z,18.00
2023-07-25T09:58:14.668Z,18.10
2023-07-25T10:01:01.061Z,18.20
2023-07-25T10:03:47.376Z,18.10
2023-07-25T10:06:36.390Z,18.20
2023-07-25T10:09:22.316Z,18.20
2023-07-25T10:12:08.196Z,18.40
2023-07-25T10:14:53.636Z,18.70
2023-07-25T10:17:39.537Z,18.80
2023-07-25T10:20:24.904Z,18.80
2023-07-25T10:23:12.229Z,18.70
2023-07-25T10:25:57.694Z,18.50
2023-07-25T10:28:42.965Z,18.30
2023-07-25T10:31:36.327Z,18.20
2023-07-25T10:34:22.017Z,18.00
2023-07-25T10:37:20.598Z,18.00
2023-07-25T10:40:24.229Z,18.00
2023-07-25T10:43:09.546Z,18.00
2023-07-25T10:45:56.720Z,18.00
2023-07-25T10:49:05.009Z,18.00
2023-07-25T10:51:53.124Z,18.00
2023-07-25T10:55:04.255Z,18.30
2023-07-25T10:58:12.016Z,18.30
2023-07-25T11:00:57.526Z,18.30
2023-07-25T11:03:43.242Z,18.40
2023-07-25T11:06:34.836Z,18.50
2023-07-25T11:09:21.961Z,18.50
2023-07-25T11:12:07.654Z,18.60
2023-07-25T11:14:54.850Z,18.60
2023-07-25T11:17:42.044Z,18.80
2023-07-25T11:20:27.379Z,18.80
2023-07-25T11:23:13.428Z,18.60
2023-07-25T11:26:02.824Z,18.30
2023-07-25T11:28:48.682Z,18.20
2023-07-25T11:31:37.018Z,18.00
2023-07-25T11:34:22.425Z,17.90
2023-07-25T11:37:12.388Z,17.80
2023-07-25T11:40:10.320Z,17.90
2023-07-25T11:42:57.029Z,17.80
2023-07-25T11:45:43.086Z,17.70
2023-07-25T11:48:29.540Z,17.70
2023-07-25T11:51:15.399Z,17.60
2023-07-25T11:54:01.451Z,17.70
2023-07-25T11:56:46.711Z,17.80
2023-07-25T11:59:39.208Z,18.00
2023-07-25T12:02:25.828Z,18.10
2023-07-25T12:05:27.930Z,18.00
2023-07-25T12:08:13.282Z,18.20
2023-07-25T12:11:04.090Z,18.40
2023-07-25T12:13:55.658Z,18.30
2023-07-25T12:16:45.501Z,18.10
2023-07-25T12:19:34.326Z,18.30
2023-07-25T12:22:20.787Z,18.10
2023-07-25T12:25:06.935Z,18.20
2023-07-25T12:27:54.492Z,18.00
2023-07-25T12:30:39.675Z,18.30
2023-07-25T12:33:25.120Z,18.60
2023-07-25T12:36:11.352Z,18.70
2023-07-25T12:38:56.774Z,19.00
2023-07-25T12:41:44.541Z,18.90
2023-07-25T12:44:29.748Z,19.00
2023-07-25T12:47:15.298Z,19.10
2023-07-25T12:50:00.933Z,19.00
2023-07-25T12:52:46.035Z,18.70
2023-07-25T12:55:31.413Z,18.60
2023-07-25T12:58:17.016Z,19.00
2023-07-25T13:01:02.587Z,19.20
2023-07-25T13:03:48.175Z,19.70
2023-07-25T13:06:35.851Z,20.00
2023-07-25T13:09:21.439Z,20.10
2023-07-25T13:12:07.151Z,20.00
2023-07-25T13:14:52.403Z,19.70
2023-07-25T13:17:38.043Z,19.70
2023-07-25T13:20:23.727Z,20.00
2023-07-25T13:23:13.774Z,20.00
2023-07-25T13:25:59.124Z,20.40
2023-07-25T13:28:44.526Z,20.30
2023-07-25T13:31:30.267Z,20.00
2023-07-25T13:34:16.410Z,19.90
2023-07-25T13:37:01.930Z,20.00
2023-07-25T13:39:47.440Z,20.40
2023-07-25T13:42:33.217Z,20.60
2023-07-25T13:45:18.941Z,20.70
2023-07-25T13:48:04.830Z,20.70
2023-07-25T13:50:54.281Z,21.10
2023-07-25T13:53:40.435Z,21.40
2023-07-25T13:56:26.853Z,21.10
2023-07-25T13:59:13.303Z,21.10
2023-07-25T14:02:01.219Z,20.70
2023-07-25T14:04:46.615Z,20.00
2023-07-25T14:07:32.243Z,19.30
2023-07-25T14:10:19.131Z,19.00
2023-07-25T14:13:04.858Z,18.80
2023-07-25T14:15:54.174Z,18.70
2023-07-25T14:18:39.862Z,18.70
2023-07-25T14:21:25.663Z,18.70
2023-07-25T14:24:11.452Z,18.90
2023-07-25T14:26:56.972Z,19.10
2023-07-25T14:29:42.429Z,19.30
2023-07-25T14:32:27.877Z,19.70
2023-07-25T14:35:13.399Z,19.80
2023-07-25T14:38:00.970Z,19.90
2023-07-25T14:40:47.429Z,20.00
2023-07-25T14:43:33.570Z,21.10
2023-07-25T14:46:19.149Z,21.70
2023-07-25T14:49:04.594Z,21.10
2023-07-25T14:51:50.139Z,21.00
2023-07-25T14:54:35.663Z,22.30
2023-07-25T14:57:21.217Z,23.50
2023-07-25T15:00:09.368Z,24.10
2023-07-25T15:02:54.988Z,22.60
2023-07-25T15:05:40.375Z,21.50
2023-07-25T15:08:26.212Z,20.50
2023-07-25T15:11:11.762Z,19.60
2023-07-25T15:13:57.069Z,19.30
2023-07-25T15:16:42.514Z,19.50
2023-07-25T15:19:28.798Z,19.70
2023-07-25T15:22:14.460Z,19.90
2023-07-25T15:24:59.975Z,20.00
2023-07-25T15:27:45.390Z,19.90
2023-07-25T15:30:32.781Z,20.10
2023-07-25T15:33:18.422Z,20.50
2023-07-25T15:36:04.252Z,20.90
2023-07-25T15:38:49.459Z,20.90
2023-07-25T15:41:35.183Z,21.50
2023-07-25T15:44:21.163Z,21.30
2023-07-25T15:47:07.109Z,21.10
2023-07-25T15:49:52.788Z,20.80
2023-07-25T15:52:38.244Z,20.80
2023-07-25T15:55:24.981Z,20.90
2023-07-25T15:58:10.757Z,20.80
2023-07-25T16:00:56.283Z,21.30
2023-07-25T16:03:46.656Z,22.30
2023-07-25T16:06:32.399Z,22.60
2023-07-25T16:09:17.817Z,22.90
2023-07-25T16:12:03.305Z,23.30
2023-07-25T16:14:48.886Z,23.00
2023-07-25T16:17:34.624Z,23.00
2023-07-25T16:20:20.186Z,22.30
2023-07-25T16:23:05.579Z,21.90
2023-07-25T16:25:51.760Z,21.10
2023-07-25T16:28:37.188Z,21.50
2023-07-25T16:31:32.390Z,21.80
2023-07-25T16:34:18.293Z,22.70
2023-07-25T16:37:03.778Z,23.60
2023-07-25T16:39:49.297Z,23.40
2023-07-25T16:42:34.995Z,22.80
2023-07-25T16:45:20.209Z,22.20
2023-07-25T16:48:05.944Z,21.90
2023-07-25T16:50:51.751Z,21.50
2023-07-25T16:53:37.651Z,20.80
2023-07-25T16:56:23.126Z,20.60
2023-07-25T16:59:08.689Z,20.50
2023-07-25T17:01:54.158Z,20.30
2023-07-25T17:04:39.906Z,20.10
2023-07-25T17:07:28.457Z,19.90
2023-07-25T17:10:13.727Z,19.90
2023-07-25T17:12:59.356Z,19.70
2023-07-25T17:15:45.071Z,19.70
2023-07-25T17:18:30.574Z,19.50
2023-07-25T17:21:18.618Z,19.50
2023-07-25T17:24:12.102Z,19.60
2023-07-25T17:26:57.591Z,19.50
2023-07-25T17:29:43.069Z,19.30
2023-07-25T17:32:28.825Z,19.20
2023-07-25T17:35:20.598Z,19.30
2023-07-25T17:38:14.794Z,19.30
2023-07-25T17:41:01.893Z,19.30
2023-07-25T17:43:47.332Z,19.20
2023-07-25T17:46:32.931Z,19.40
2023-07-25T17:49:20.715Z,19.50
2023-07-25T17:52:07.002Z,19.50
2023-07-25T17:54:52.657Z,19.40
2023-07-25T17:57:38.126Z,19.30
2023-07-25T18:00:23.619Z,19.20
2023-07-25T18:03:09.665Z,19.10
2023-07-25T18:05:55.247Z,19.10
2023-07-25T18:08:40.995Z,19.00
2023-07-25T18:11:26.856Z,19.00
2023-07-25T18:14:12.334Z,18.90
2023-07-25T18:16:58.043Z,18.80
2023-07-25T18:19:43.442Z,18.60
2023-07-25T18:22:32.295Z,18.50
2023-07-25T18:25:18.041Z,18.50
2023-07-25T18:28:03.543Z,18.30
2023-07-25T18:30:49.178Z,18.20
2023-07-25T18:33:34.768Z,18.20
2023-07-25T18:36:20.440Z,18.10
2023-07-25T18:39:09.112Z,18.00
2023-07-25T18:41:54.394Z,18.00
2023-07-25T18:44:40.000Z,17.80
2023-07-25T18:47:34.294Z,17.80
2023-07-25T18:50:21.163Z,17.80
2023-07-25T18:53:06.798Z,17.80
2023-07-25T18:55:52.369Z,17.80
2023-07-25T18:58:37.961Z,17.60
2023-07-25T19:01:23.383Z,17.60
2023-07-25T19:04:10.501Z,17.50
2023-07-25T19:06:55.759Z,17.50
2023-07-25T19:09:44.203Z,17.40
2023-07-25T19:12:29.501Z,17.50
2023-07-25T19:15:15.110Z,17.40
2023-07-25T19:18:00.665Z,17.30
2023-07-25T19:20:46.321Z,17.20
2023-07-25T19:23:31.833Z,17.20
2023-07-25T19:26:17.473Z,17.00
2023-07-25T19:29:03.046Z,17.00
2023-07-25T19:31:48.609Z,17.00
2023-07-25T19:34:36.361Z,16.80
2023-07-25T19:37:21.713Z,16.70
2023-07-25T19:40:08.594Z,16.60
2023-07-25T19:42:54.235Z,16.50
2023-07-25T19:45:39.729Z,16.50
2023-07-25T19:48:25.249Z,16.40
2023-07-25T19:51:15.691Z,16.30
2023-07-25T19:54:01.115Z,16.20
2023-07-25T19:56:46.537Z,16.20
2023-07-25T19:59:32.095Z,16.10
2023-07-25T20:02:17.624Z,16.10
2023-07-25T20:05:03.389Z,16.00
2023-07-25T20:07:48.899Z,16.00
2023-07-25T20:10:34.319Z,15.90
2023-07-25T20:13:19.901Z,15.80
2023-07-25T20:16:05.311Z,15.80
2023-07-25T20:18:51.045Z,15.50
2023-07-25T20:21:36.559Z,15.50
2023-07-25T20:24:22.078Z,15.40
2023-07-25T20:27:07.657Z,15.30
2023-07-25T20:29:53.829Z,15.20
2023-07-25T20:32:39.677Z,15.10
2023-07-25T20:35:25.223Z,15.10
2023-07-25T20:38:11.398Z,15.10
2023-07-25T20:40:56.800Z,15.10
2023-07-25T20:43:42.585Z,15.00
2023-07-25T20:46:28.223Z,15.00
2023-07-25T20:49:13.739Z,14.90
2023-07-25T20:51:59.350Z,15.00
2023-07-25T20:54:45.127Z,14.80
2023-07-25T20:57:31.432Z,14.80
2023-07-25T21:00:17.159Z,14.80
2023-07-25T21:03:02.934Z,14.80
2023-07-25T21:05:48.466Z,14.60
2023-07-25T21:08:34.867Z,14.50
2023-07-25T21:11:20.500Z,14.50
2023-07-25T21:14:06.061Z,14.50
2023-07-25T21:16:51.788Z,14.40
2023-07-25T21:19:37.078Z,14.40
2023-07-25T21:22:22.652Z,14.30
2023-07-25T21:25:08.635Z,14.30
2023-07-25T21:27:53.736Z,14.20
2023-07-25T21:30:39.594Z,14.30
2023-07-25T21:33:27.152Z,14.20
2023-07-25T21:36:14.613Z,14.10
2023-07-25T21:39:00.275Z,14.10
2023-07-25T21:41:48.225Z,14.10
2023-07-25T21:44:33.657Z,14.00
2023-07-25T21:47:19.080Z,14.00
2023-07-25T21:50:05.164Z,14.00
2023-07-25T21:52:50.756Z,14.00
2023-07-25T21:55:36.059Z,14.00
2023-07-25T21:58:22.454Z,14.00
2023-07-25T22:01:07.694Z,13.90
2023-07-25T22:03:53.370Z,13.90
2023-07-25T22:06:38.783Z,13.80
2023-07-25T22:09:24.297Z,13.80
2023-07-25T22:12:11.173Z,13.70
2023-07-25T22:14:56.560Z,13.80
2023-07-25T22:17:42.136Z,13.70
2023-07-25T22:20:35.047Z,13.70
2023-07-25T22:23:27.577Z,13.60
2023-07-25T22:26:13.047Z,13.60
2023-07-25T22:28:58.575Z,13.60
2023-07-25T22:31:45.273Z,13.50
2023-07-25T22:34:30.673Z,13.50
2023-07-25T22:37:16.282Z,13.50
2023-07-25T22:40:02.053Z,13.50
2023-07-25T22:42:47.460Z,13.30
2023-07-25T22:45:33.130Z,13.30
2023-07-25T22:48:18.698Z,13.30
2023-07-25T22:51:04.148Z,13.30
2023-07-25T22:53:49.834Z,13.20
2023-07-25T22:56:35.430Z,13.10
2023-07-25T22:59:20.917Z,13.10
2023-07-25T23:02:06.943Z,13.10
2023-07-25T23:04:52.492Z,13.00
2023-07-25T23:07:38.301Z,13.00
2023-07-25T23:10:23.801Z,12.90
2023-07-25T23:13:09.378Z,12.90
2023-07-25T23:15:54.972Z,12.80
2023-07-25T23:18:40.426Z,12.90
2023-07-25T23:21:27.876Z,12.90
2023-07-25T23:24:13.629Z,12.90
2023-07-25T23:26:59.073Z,12.80
2023-07-25T23:29:44.722Z,12.70
2023-07-25T23:32:30.284Z,12.50
2023-07-25T23:35:15.951Z,12.50
2023-07-25T23:38:01.858Z,12.50
2023-07-25T23:40:47.173Z,12.50
2023-07-25T23:43:32.744Z,12.50
2023-07-25T23:46:18.254Z,12.50
2023-07-25T23:49:03.752Z,12.50
2023-07-25T23:51:49.197Z,12.50
2023-07-25T23:54:34.997Z,12.50
2023-07-25T23:57:20.400Z,12.40
